Time;durP1;ratioP1;P1;durP2;ratioP2;P2;SDS_P1;SDS_P2;PMS_P1;PMS_P2;Temp;Humidity;BMP_temperature;BMP_pressure;BME280_temperature;BME280_humidity;BME280_pressure;Samples;Min_cycle;Max_cycle;Signal;HPM_P1;HPM_P2
2020/12/12 00:04:33;;;;;;;5.00;0.70;;;23.80;68.80;;;;;;5071991;22;20045;-85
2020/12/12 00:07:00;;;;;;;4.10;0.70;;;23.50;69.70;;;;;;5051433;28;20033;-82
2020/12/12 00:09:28;;;;;;;1.67;0.20;;;23.70;72.20;;;;;;5076283;22;20057;-82
2020/12/12 00:11:55;;;;;;;3.67;0.80;;;24.10;69.20;;;;;;5049990;28;20025;-85
2020/12/12 00:14:22;;;;;;;3.28;0.32;;;24.00;69.50;;;;;;5062318;28;20032;-81
2020/12/12 00:16:52;;;;;;;1.73;0.40;;;23.80;70.30;;;;;;5071414;28;20028;-83
2020/12/12 00:19:20;;;;;;;1.00;0.25;;;24.00;68.70;;;;;;5038757;23;20436;-85
2020/12/12 00:21:56;;;;;;;2.53;0.40;;;23.90;69.10;;;;;;5031995;28;20100;-83
2020/12/12 00:24:23;;;;;;;1.20;0.20;;;24.20;67.20;;;;;;5040684;28;20456;-86
2020/12/12 00:26:51;;;;;;;4.18;0.28;;;24.10;64.70;;;;;;5050379;28;20035;-86
2020/12/12 00:29:18;;;;;;;2.72;0.55;;;24.50;65.70;;;;;;5054193;28;20029;-86
2020/12/12 00:31:45;;;;;;;1.50;0.30;;;24.40;66.00;;;;;;5056210;28;20016;-82
2020/12/12 00:36:42;;;;;;;1.58;0.43;;;24.70;64.90;;;;;;5051800;23;20087;-85
2020/12/12 00:39:09;;;;;;;1.92;0.25;;;24.80;69.00;;;;;;5059987;28;20059;-83
2020/12/12 00:41:40;;;;;;;3.50;0.55;;;24.60;64.80;;;;;;5071147;28;20059;-83
2020/12/12 00:44:08;;;;;;;4.68;0.55;;;24.20;68.20;;;;;;5087659;28;20032;-83
2020/12/12 00:46:36;;;;;;;3.40;0.40;;;24.80;66.90;;;;;;5091364;28;20032;-83
2020/12/12 00:49:06;;;;;;;4.50;0.40;;;25.40;66.00;;;;;;5070513;28;20024;-84
2020/12/12 00:51:33;;;;;;;2.38;0.50;;;24.90;67.20;;;;;;5091343;28;20071;-82
2020/12/12 00:54:01;;;;;;;0.20;0.10;;;24.80;66.50;;;;;;5088150;28;20576;-83
2020/12/12 00:56:28;;;;;;;2.35;0.30;;;24.80;66.30;;;;;;5091305;28;20054;-83
2020/12/12 00:58:56;;;;;;;4.55;0.30;;;24.90;68.50;;;;;;5086805;28;20028;-84
2020/12/12 01:01:23;;;;;;;4.55;0.40;;;24.50;69.10;;;;;;5068625;28;20111;-82
2020/12/12 01:03:50;;;;;;;5.60;0.90;;;24.60;72.20;;;;;;5065547;28;20062;-83
2020/12/12 01:06:19;;;;;;;3.53;0.77;;;24.90;73.60;;;;;;5070958;28;20036;-83
2020/12/12 01:08:47;;;;;;;5.53;0.60;;;24.80;72.20;;;;;;5063461;22;20080;-85
2020/12/12 01:11:19;;;;;;;5.13;0.50;;;25.20;70.10;;;;;;5035407;28;20053;-84
2020/12/12 01:13:46;;;;;;;6.38;1.27;;;25.20;68.50;;;;;;5035912;28;20140;-87
2020/12/12 01:16:16;;;;;;;3.35;0.63;;;25.00;70.30;;;;;;5034940;28;20118;-83
2020/12/12 01:18:43;;;;;;;4.07;0.47;;;24.90;72.80;;;;;;5034613;28;20026;-83
2020/12/12 01:21:16;;;;;;;2.70;0.40;;;24.40;69.20;;;;;;5035277;28;20105;-84
2020/12/12 01:23:44;;;;;;;6.93;1.30;;;24.70;68.50;;;;;;5035802;28;20079;-84
2020/12/12 01:26:12;;;;;;;3.20;0.60;;;24.30;71.40;;;;;;5043826;28;20536;-85
2020/12/12 01:28:39;;;;;;;2.40;0.75;;;24.60;68.20;;;;;;5041758;28;20112;-83
2020/12/12 01:31:10;;;;;;;2.47;0.35;;;25.20;69.60;;;;;;5033801;28;20474;-86
2020/12/12 01:33:38;;;;;;;2.63;0.55;;;25.30;67.90;;;;;;5040718;28;20044;-83
2020/12/12 01:36:09;;;;;;;4.15;0.60;;;24.80;67.80;;;;;;5054080;28;20485;-83
2020/12/12 01:38:36;;;;;;;1.67;0.40;;;24.90;67.00;;;;;;5046248;28;20076;-84
2020/12/12 01:41:04;;;;;;;4.10;0.40;;;25.00;66.00;;;;;;5044021;28;20557;-83
2020/12/12 01:43:31;;;;;;;6.35;0.60;;;25.00;67.00;;;;;;5045164;28;20075;-84
2020/12/12 01:45:59;;;;;;;5.00;0.65;;;25.70;66.90;;;;;;5034442;28;20032;-84
2020/12/12 01:48:26;;;;;;;2.15;0.43;;;26.30;64.70;;;;;;5034881;28;20084;-85
2020/12/12 01:50:56;;;;;;;3.40;0.50;;;25.70;65.50;;;;;;5034507;28;20108;-83
2020/12/12 01:53:26;;;;;;;2.30;0.40;;;25.80;67.50;;;;;;5034352;28;20065;-83
2020/12/12 01:55:53;;;;;;;1.67;0.28;;;26.30;69.80;;;;;;5054283;28;20474;-83
2020/12/12 01:58:20;;;;;;;4.10;0.60;;;26.10;65.00;;;;;;5042456;28;20039;-83
2020/12/12 02:00:48;;;;;;;1.88;0.32;;;25.00;65.00;;;;;;5033636;28;20037;-85
2020/12/12 02:03:16;;;;;;;5.05;1.00;;;24.40;67.10;;;;;;5031949;28;20029;-84
2020/12/12 02:05:47;;;;;;;3.90;0.50;;;24.60;68.70;;;;;;5037585;28;20529;-83
2020/12/12 02:10:52;;;;;;;3.80;0.60;;;25.00;68.60;;;;;;5075756;22;20057;-84
2020/12/12 02:13:19;;;;;;;3.60;0.63;;;25.50;68.00;;;;;;5073808;22;20539;-86
2020/12/12 02:15:47;;;;;;;3.33;0.75;;;25.70;67.60;;;;;;5073962;28;20510;-83
2020/12/12 02:18:25;;;;;;;4.85;0.73;;;25.80;67.80;;;;;;5058989;22;20448;-88
2020/12/12 02:21:00;;;;;;;3.28;0.60;;;25.70;67.40;;;;;;5047739;28;20025;-83
2020/12/12 02:23:28;;;;;;;2.35;0.60;;;24.40;70.30;;;;;;5047547;28;20047;-86
2020/12/12 02:25:57;;;;;;;6.28;0.68;;;24.80;72.70;;;;;;5038415;23;20053;-86
2020/12/12 02:28:39;;;;;;;5.22;0.60;;;25.10;72.10;;;;;;5043546;28;20036;-86
2020/12/12 02:31:06;;;;;;;4.45;1.08;;;25.30;73.20;;;;;;5028962;28;20021;-84
2020/12/12 02:33:34;;;;;;;3.17;0.80;;;25.50;73.10;;;;;;5054221;28;20534;-84
2020/12/12 02:36:08;;;;;;;4.20;0.73;;;24.80;73.30;;;;;;5053874;28;20029;-91
2020/12/12 02:38:41;;;;;;;4.18;0.63;;;24.60;77.00;;;;;;5041438;28;20016;-92
2020/12/12 02:41:11;;;;;;;5.28;0.50;;;25.00;75.70;;;;;;5040966;28;20037;-83
2020/12/12 02:43:39;;;;;;;3.55;0.50;;;25.00;74.00;;;;;;5032055;23;20099;-85
2020/12/12 02:46:06;;;;;;;4.85;0.60;;;24.50;76.70;;;;;;5033774;28;20036;-86
2020/12/12 02:48:33;;;;;;;3.33;0.70;;;24.10;77.30;;;;;;5031124;28;20090;-85
2020/12/12 02:51:01;;;;;;;4.50;0.40;;;23.80;79.20;;;;;;5036068;28;20470;-88
2020/12/12 02:53:29;;;;;;;4.00;0.60;;;24.00;77.70;;;;;;5036551;28;20043;-91
2020/12/12 02:55:56;;;;;;;5.47;0.68;;;24.00;76.50;;;;;;5052800;28;20070;-85
2020/12/12 02:58:23;;;;;;;2.15;0.40;;;23.90;78.00;;;;;;5051751;28;20025;-87
2020/12/12 03:00:50;;;;;;;7.53;0.80;;;24.50;76.80;;;;;;5033843;28;20033;-85
2020/12/12 03:03:18;;;;;;;5.47;0.70;;;25.20;77.60;;;;;;5049004;28;20021;-92
2020/12/12 03:05:45;;;;;;;4.05;0.60;;;25.60;75.30;;;;;;5052311;28;20039;-88
2020/12/12 03:08:12;;;;;;;4.03;0.55;;;25.50;74.70;;;;;;5051424;28;20379;-85
2020/12/12 03:10:39;;;;;;;4.28;0.55;;;24.70;76.70;;;;;;5057023;28;20025;-92
2020/12/12 03:13:07;;;;;;;3.95;0.63;;;23.80;78.70;;;;;;5047746;28;20120;-86
2020/12/12 03:15:34;;;;;;;3.88;1.00;;;23.10;83.60;;;;;;5062772;22;20045;-85
2020/12/12 03:18:01;;;;;;;2.78;0.30;;;23.40;82.40;;;;;;5029948;28;20395;-91
2020/12/12 03:20:29;;;;;;;5.07;1.10;;;23.40;83.10;;;;;;5033749;28;20413;-86
2020/12/12 03:22:56;;;;;;;2.83;0.30;;;23.10;84.80;;;;;;5030610;28;20510;-87
2020/12/12 03:25:24;;;;;;;3.75;0.50;;;23.00;84.30;;;;;;5033294;28;20022;-86
2020/12/12 03:27:51;;;;;;;2.17;0.30;;;23.00;84.40;;;;;;5030862;28;20025;-88
2020/12/12 03:30:18;;;;;;;8.70;0.63;;;23.10;84.20;;;;;;5030676;28;20060;-86
2020/12/12 03:32:45;;;;;;;4.70;0.40;;;23.40;85.50;;;;;;5031088;28;20087;-88
2020/12/12 03:35:13;;;;;;;5.35;0.47;;;23.10;83.00;;;;;;5027869;28;20025;-86
2020/12/12 03:37:40;;;;;;;4.72;0.88;;;22.80;84.20;;;;;;5050090;28;20025;-84
2020/12/12 03:40:08;;;;;;;2.88;0.28;;;23.30;82.10;;;;;;5031474;28;20029;-82
2020/12/12 03:42:35;;;;;;;5.72;0.30;;;22.90;83.40;;;;;;5030741;28;20038;-83
2020/12/12 03:45:03;;;;;;;5.10;0.77;;;22.60;85.40;;;;;;5021770;28;20041;-84
2020/12/12 03:47:30;;;;;;;4.43;0.70;;;22.40;85.80;;;;;;5011852;28;20026;-83
2020/12/12 03:49:58;;;;;;;3.60;0.47;;;22.10;86.70;;;;;;5026563;28;20030;-85
2020/12/12 03:52:25;;;;;;;2.97;0.50;;;22.20;84.90;;;;;;5030893;28;20065;-82
2020/12/12 03:54:52;;;;;;;2.47;0.30;;;22.80;86.70;;;;;;5029719;28;20048;-84
2020/12/12 03:57:19;;;;;;;4.03;0.60;;;22.90;84.10;;;;;;5031920;28;20105;-86
2020/12/12 03:59:46;;;;;;;8.30;1.08;;;22.70;85.50;;;;;;5028628;28;20609;-86
2020/12/12 04:02:14;;;;;;;3.83;0.40;;;22.60;86.20;;;;;;5031990;28;20025;-83
2020/12/12 04:04:41;;;;;;;4.97;0.75;;;22.30;87.70;;;;;;5027265;28;20023;-85
2020/12/12 04:07:09;;;;;;;3.28;0.50;;;22.30;87.90;;;;;;5030977;28;20026;-82
2020/12/12 04:09:36;;;;;;;6.80;0.73;;;22.10;88.00;;;;;;5025662;28;20482;-86
2020/12/12 04:12:03;;;;;;;4.10;0.43;;;21.90;90.10;;;;;;5027595;28;20049;-84
2020/12/12 04:14:32;;;;;;;5.90;0.50;;;22.20;90.10;;;;;;5029225;28;20112;-84
2020/12/12 04:17:00;;;;;;;1.85;0.45;;;22.10;90.30;;;;;;5082883;22;20194;-85
2020/12/12 04:19:27;;;;;;;3.97;0.40;;;22.20;89.80;;;;;;5063495;22;20482;-83
2020/12/12 04:21:54;;;;;;;7.00;1.38;;;22.30;91.10;;;;;;5051212;28;20021;-83
2020/12/12 04:24:22;;;;;;;6.03;0.75;;;22.30;90.80;;;;;;5064299;22;20052;-83
2020/12/12 04:26:49;;;;;;;3.17;0.47;;;22.10;92.10;;;;;;5070818;28;20420;-82
2020/12/12 04:29:16;;;;;;;3.58;0.35;;;21.70;92.10;;;;;;5054486;28;20179;-84
2020/12/12 04:31:43;;;;;;;5.93;0.70;;;21.90;91.50;;;;;;5066927;28;20021;-81
2020/12/12 04:34:11;;;;;;;4.78;0.47;;;21.40;91.60;;;;;;5060186;22;20052;-86
2020/12/12 04:36:38;;;;;;;4.47;0.50;;;21.30;91.80;;;;;;5050535;28;20025;-83
2020/12/12 04:39:06;;;;;;;5.75;1.02;;;21.30;91.30;;;;;;5049537;28;20044;-90
2020/12/12 04:41:35;;;;;;;3.10;0.30;;;21.30;91.40;;;;;;5052106;28;20107;-87
2020/12/12 04:44:03;;;;;;;3.78;1.00;;;21.40;91.60;;;;;;5050383;28;20029;-85
2020/12/12 04:46:31;;;;;;;7.32;0.65;;;21.50;92.00;;;;;;5051191;28;20083;-87
2020/12/12 04:48:58;;;;;;;6.55;0.85;;;21.40;92.00;;;;;;5055273;22;20037;-84
2020/12/12 04:51:26;;;;;;;4.28;1.02;;;21.40;91.30;;;;;;5048893;28;20563;-84
2020/12/12 04:53:57;;;;;;;6.25;0.50;;;20.90;91.80;;;;;;5047176;28;20052;-86
2020/12/12 04:56:26;;;;;;;4.43;0.55;;;20.80;92.10;;;;;;5050790;28;20071;-83
2020/12/12 04:58:54;;;;;;;3.50;0.35;;;21.10;92.20;;;;;;5028849;28;20063;-84
2020/12/12 05:01:22;;;;;;;4.28;0.55;;;21.50;92.10;;;;;;5050462;28;20150;-83
2020/12/12 05:03:51;;;;;;;6.55;0.70;;;21.60;91.60;;;;;;5047780;28;20017;-82
2020/12/12 05:06:18;;;;;;;5.63;0.30;;;21.60;91.60;;;;;;5047743;28;20017;-82
2020/12/12 05:08:45;;;;;;;5.25;0.30;;;21.50;91.30;;;;;;5055967;28;20017;-81
2020/12/12 05:11:15;;;;;;;8.25;0.70;;;21.60;91.30;;;;;;5046959;28;20021;-84
2020/12/12 05:13:46;;;;;;;3.35;0.75;;;21.70;91.20;;;;;;5039743;28;20397;-91
2020/12/12 05:16:14;;;;;;;4.57;0.50;;;21.70;91.10;;;;;;5055567;28;20052;-93
2020/12/12 05:18:43;;;;;;;5.88;0.63;;;21.50;90.50;;;;;;5050229;28;20504;-90
2020/12/12 05:21:11;;;;;;;5.05;1.02;;;21.60;90.90;;;;;;5054558;28;20021;-90
2020/12/12 05:23:39;;;;;;;3.85;0.63;;;21.50;91.00;;;;;;5071526;22;20045;-91
2020/12/12 05:26:07;;;;;;;3.30;0.28;;;21.50;91.40;;;;;;5058153;28;20108;-92
2020/12/12 05:28:34;;;;;;;5.45;0.60;;;21.40;91.70;;;;;;5051414;28;20029;-87
2020/12/12 05:31:01;;;;;;;3.10;0.45;;;21.30;92.00;;;;;;5048957;28;20450;-93
2020/12/12 05:33:29;;;;;;;3.17;0.55;;;21.50;91.90;;;;;;5047266;28;20060;-89
2020/12/12 05:35:56;;;;;;;3.00;0.43;;;21.60;91.90;;;;;;5050712;28;20136;-92
2020/12/12 05:38:23;;;;;;;3.85;0.57;;;21.40;91.70;;;;;;5057530;28;20016;-90
2020/12/12 05:40:55;;;;;;;7.10;0.82;;;21.20;92.40;;;;;;5056525;28;20086;-94
2020/12/12 05:43:36;;;;;;;3.30;0.65;;;21.00;92.50;;;;;;5044191;28;20045;-89
2020/12/12 05:46:04;;;;;;;2.92;0.60;;;21.10;92.60;;;;;;5032281;28;20021;-90
2020/12/12 05:48:31;;;;;;;5.22;0.77;;;21.20;92.40;;;;;;5045175;28;20170;-95
2020/12/12 05:50:58;;;;;;;3.72;0.60;;;21.10;92.20;;;;;;5074112;28;20500;-93
2020/12/12 05:53:26;;;;;;;3.33;0.40;;;20.80;92.30;;;;;;5066598;28;20051;-91
2020/12/12 05:55:55;;;;;;;3.97;0.63;;;20.70;92.60;;;;;;5078155;28;20048;-90
2020/12/12 05:58:23;;;;;;;4.28;0.30;;;21.00;92.70;;;;;;5050527;28;20144;-96
2020/12/12 06:00:52;;;;;;;3.30;0.30;;;21.30;92.10;;;;;;5040825;28;20530;-93
2020/12/12 06:03:32;;;;;;;2.28;0.60;;;21.20;91.70;;;;;;5057063;28;20028;-88
2020/12/12 06:06:05;;;;;;;2.58;0.38;;;21.10;92.10;;;;;;5054055;28;20068;-91
2020/12/12 06:08:39;;;;;;;6.03;0.60;;;20.90;92.10;;;;;;5056582;28;20025;-89
2020/12/12 06:11:10;;;;;;;3.40;0.57;;;20.70;92.70;;;;;;5055302;28;20017;-90
2020/12/12 06:13:39;;;;;;;5.88;0.50;;;21.00;92.40;;;;;;5062153;28;20043;-88
2020/12/12 06:16:08;;;;;;;2.42;0.60;;;21.20;92.30;;;;;;5040300;28;20501;-92
2020/12/12 06:18:56;;;;;;;4.15;0.40;;;21.10;92.50;;;;;;5076612;28;20036;-90
2020/12/12 06:21:23;;;;;;;4.13;0.40;;;21.10;91.90;;;;;;5061287;28;20090;-85
2020/12/12 06:23:51;;;;;;;7.10;0.88;;;21.10;91.90;;;;;;5076345;22;20068;-90
2020/12/12 06:26:26;;;;;;;5.55;0.45;;;21.00;91.70;;;;;;5073326;22;20131;-88
2020/12/12 06:28:54;;;;;;;5.07;0.70;;;20.90;91.80;;;;;;5051875;22;20129;-88
2020/12/12 06:31:22;;;;;;;1.85;0.40;;;20.90;92.20;;;;;;5074512;22;20025;-91
2020/12/12 06:33:54;;;;;;;5.18;0.50;;;20.90;91.80;;;;;;5061309;28;20036;-92
2020/12/12 06:36:29;;;;;;;3.88;0.52;;;21.00;91.60;;;;;;5076552;28;20027;-89
2020/12/12 06:39:18;;;;;;;4.55;0.80;;;20.60;92.00;;;;;;5047669;28;20021;-86
2020/12/12 06:41:46;;;;;;;3.00;0.30;;;20.60;92.10;;;;;;5055403;23;20151;-86
2020/12/12 06:44:29;;;;;;;5.22;0.38;;;20.40;91.70;;;;;;5051212;28;20102;-85
2020/12/12 06:46:57;;;;;;;2.70;0.47;;;20.50;92.10;;;;;;5053165;28;20049;-84
2020/12/12 06:49:24;;;;;;;3.05;0.60;;;20.50;92.00;;;;;;5052713;28;20017;-87
2020/12/12 06:51:53;;;;;;;3.35;0.60;;;20.50;92.70;;;;;;5032914;28;20483;-84
2020/12/12 06:54:20;;;;;;;3.90;0.88;;;20.50;92.70;;;;;;5051939;28;20112;-84
2020/12/12 06:56:48;;;;;;;5.10;1.17;;;20.50;92.20;;;;;;5068546;22;20636;-85
2020/12/12 06:59:30;;;;;;;4.90;1.83;;;20.40;92.20;;;;;;5051953;28;20028;-85
2020/12/12 07:02:06;;;;;;;5.15;3.58;;;20.30;92.20;;;;;;5053190;28;20017;-85
2020/12/12 07:04:38;;;;;;;4.97;0.95;;;20.40;91.80;;;;;;5052951;28;20025;-85
2020/12/12 07:07:10;;;;;;;2.58;0.77;;;20.50;91.90;;;;;;5051313;28;20037;-85
2020/12/12 07:09:40;;;;;;;3.65;0.70;;;20.60;91.60;;;;;;5053012;28;20052;-84
2020/12/12 07:12:09;;;;;;;3.75;0.85;;;20.60;91.10;;;;;;5052448;28;20037;-84
2020/12/12 07:14:37;;;;;;;4.53;0.40;;;20.50;91.30;;;;;;5055334;28;20024;-85
2020/12/12 07:17:06;;;;;;;2.70;0.55;;;20.50;91.40;;;;;;5052747;28;20067;-86
2020/12/12 07:19:40;;;;;;;4.40;1.08;;;20.50;91.40;;;;;;5053413;28;20017;-85
2020/12/12 07:22:09;;;;;;;3.35;0.57;;;20.30;91.40;;;;;;5053031;28;20017;-85
2020/12/12 07:24:38;;;;;;;4.97;0.30;;;20.20;91.90;;;;;;5052189;28;20039;-85
2020/12/12 07:27:07;;;;;;;3.97;1.08;;;20.00;92.10;;;;;;5052264;28;20108;-86
2020/12/12 07:29:34;;;;;;;3.33;0.80;;;20.10;92.40;;;;;;5075899;22;20056;-85
2020/12/12 07:32:02;;;;;;;3.78;1.50;;;20.10;92.50;;;;;;5072281;28;20036;-85
2020/12/12 07:34:29;;;;;;;4.30;1.05;;;20.20;92.40;;;;;;5072388;28;20453;-84
2020/12/12 07:37:02;;;;;;;3.85;2.00;;;20.30;92.30;;;;;;5072259;28;20113;-84
2020/12/12 07:39:34;;;;;;;4.40;0.97;;;20.20;92.40;;;;;;5072346;28;20017;-84
2020/12/12 07:42:04;;;;;;;8.90;3.38;;;20.20;92.60;;;;;;5072082;28;20026;-85
2020/12/12 07:44:33;;;;;;;6.40;4.20;;;20.30;92.70;;;;;;5072045;28;20025;-84
2020/12/12 07:47:08;;;;;;;2.22;0.50;;;20.30;92.70;;;;;;5071969;28;20075;-85
2020/12/12 07:49:37;;;;;;;4.50;0.50;;;20.40;92.70;;;;;;5072181;28;20024;-84
2020/12/12 07:52:10;;;;;;;5.85;0.47;;;20.40;92.60;;;;;;5040533;28;20029;-84
2020/12/12 07:54:48;;;;;;;3.83;1.80;;;20.40;92.80;;;;;;5052080;28;20028;-85
2020/12/12 07:57:16;;;;;;;5.93;2.28;;;20.40;93.10;;;;;;5052002;28;20025;-84
2020/12/12 07:59:43;;;;;;;6.13;2.45;;;20.50;93.20;;;;;;5052163;28;20041;-86
2020/12/12 08:02:13;;;;;;;3.17;0.80;;;20.40;93.20;;;;;;5062239;28;20025;-85
2020/12/12 08:04:41;;;;;;;4.65;1.38;;;20.30;93.70;;;;;;5072227;28;20052;-85
2020/12/12 08:07:17;;;;;;;10.20;5.63;;;20.30;93.90;;;;;;5071736;28;20028;-86
2020/12/12 08:09:51;;;;;;;6.82;5.90;;;20.30;94.10;;;;;;5074430;28;20017;-84
2020/12/12 08:12:31;;;;;;;4.68;1.20;;;20.30;93.90;;;;;;5074040;28;20028;-86
2020/12/12 08:15:22;;;;;;;7.55;2.83;;;20.10;94.40;;;;;;5074718;28;20115;-85
2020/12/12 08:17:49;;;;;;;3.40;1.80;;;20.10;94.90;;;;;;5053668;28;20030;-84
2020/12/12 08:20:28;;;;;;;13.35;3.30;;;20.00;96.70;;;;;;5072593;28;20059;-86
2020/12/12 08:22:56;;;;;;;6.68;0.95;;;20.00;97.00;;;;;;5073871;28;20443;-90
2020/12/12 08:25:23;;;;;;;6.22;1.55;;;19.70;98.00;;;;;;5072282;28;20020;-85
2020/12/12 08:27:51;;;;;;;6.43;0.80;;;19.50;98.80;;;;;;5071586;28;20079;-85
2020/12/12 08:30:18;;;;;;;3.65;0.70;;;19.40;99.00;;;;;;5088078;22;20331;-85
2020/12/12 08:32:49;;;;;;;3.85;0.30;;;19.40;99.20;;;;;;5051870;23;20372;-85
2020/12/12 08:35:26;;;;;;;4.22;0.30;;;19.20;99.00;;;;;;5065602;22;20113;-85
2020/12/12 08:38:06;;;;;;;4.07;0.38;;;19.10;99.50;;;;;;5058707;22;20116;-85
2020/12/12 08:40:49;;;;;;;4.00;0.50;;;19.10;99.80;;;;;;5051211;28;20033;-84
2020/12/12 08:43:17;;;;;;;3.42;0.40;;;19.20;99.30;;;;;;5051723;28;20028;-86
2020/12/12 08:45:59;;;;;;;2.05;0.50;;;19.20;99.50;;;;;;5051759;28;20009;-85
2020/12/12 08:48:35;;;;;;;3.95;0.50;;;19.10;99.50;;;;;;5058529;22;20128;-89
2020/12/12 08:51:04;;;;;;;4.07;0.55;;;19.00;99.80;;;;;;5051458;28;20029;-90
2020/12/12 08:53:46;;;;;;;6.53;0.88;;;19.00;99.90;;;;;;5044045;28;20048;-84
2020/12/12 08:56:24;;;;;;;4.10;0.70;;;19.10;99.90;;;;;;5029390;28;20022;-84
2020/12/12 08:59:04;;;;;;;3.28;0.65;;;19.00;99.90;;;;;;5032178;28;20121;-85
2020/12/12 09:01:34;;;;;;;3.78;0.98;;;19.00;99.90;;;;;;5051096;28;20026;-85
2020/12/12 09:04:08;;;;;;;3.90;0.50;;;19.00;99.90;;;;;;5069178;22;20131;-86
2020/12/12 09:06:48;;;;;;;3.17;0.70;;;18.90;99.90;;;;;;5050937;28;20021;-85
2020/12/12 09:09:28;;;;;;;4.15;0.40;;;18.90;99.90;;;;;;5033287;28;20676;-85
2020/12/12 09:11:58;;;;;;;1.80;0.50;;;19.10;99.90;;;;;;5033066;28;20033;-85
2020/12/12 09:14:27;;;;;;;4.70;0.38;;;19.10;99.90;;;;;;5050819;28;20107;-88
2020/12/12 09:16:57;;;;;;;3.33;0.50;;;19.10;99.90;;;;;;5050979;28;20407;-85
2020/12/12 09:19:29;;;;;;;7.22;1.02;;;19.10;99.90;;;;;;5050919;28;20450;-84
2020/12/12 09:22:00;;;;;;;2.17;0.50;;;18.70;99.90;;;;;;5050964;28;20045;-85
2020/12/12 09:24:29;;;;;;;5.07;0.70;;;18.40;99.90;;;;;;5050930;28;20021;-84
2020/12/12 09:26:59;;;;;;;6.10;0.75;;;18.10;99.90;;;;;;5035010;28;20036;-84
2020/12/12 09:29:27;;;;;;;5.65;0.90;;;17.90;99.90;;;;;;5054817;28;20028;-85
2020/12/12 09:31:58;;;;;;;4.57;0.55;;;17.90;99.90;;;;;;5036837;28;20612;-85
2020/12/12 09:34:25;;;;;;;4.40;0.75;;;17.80;99.90;;;;;;5036603;28;20029;-86
2020/12/12 09:36:53;;;;;;;3.63;0.65;;;17.70;99.90;;;;;;5061538;22;20064;-85
2020/12/12 09:39:21;;;;;;;1.90;0.50;;;17.70;99.90;;;;;;5049881;28;20021;-85
2020/12/12 09:41:48;;;;;;;5.25;0.77;;;17.70;99.90;;;;;;5033484;28;20021;-85
2020/12/12 09:44:16;;;;;;;6.07;1.38;;;17.70;99.90;;;;;;5043435;28;20038;-85
2020/12/12 09:46:43;;;;;;;7.57;0.70;;;17.70;99.90;;;;;;5053872;28;20092;-86
2020/12/12 09:49:10;;;;;;;5.30;0.50;;;17.60;99.90;;;;;;5083581;28;20035;-87
2020/12/12 09:51:38;;;;;;;6.88;0.60;;;17.50;99.90;;;;;;5093659;28;20103;-87
2020/12/12 09:54:05;;;;;;;5.65;0.93;;;17.60;99.90;;;;;;5079585;28;20488;-89
2020/12/12 09:56:32;;;;;;;11.85;1.63;;;17.50;99.90;;;;;;5074784;28;20473;-88
2020/12/12 09:59:01;;;;;;;2.33;0.30;;;17.40;99.90;;;;;;5075413;28;20485;-88
2020/12/12 10:01:28;;;;;;;1.73;0.45;;;17.20;99.90;;;;;;5074073;28;20107;-87
2020/12/12 10:03:56;;;;;;;2.40;0.60;;;17.30;99.90;;;;;;5074018;28;20036;-87
2020/12/12 10:06:24;;;;;;;2.85;0.40;;;17.30;99.90;;;;;;5074285;28;20461;-86
2020/12/12 10:08:51;;;;;;;3.53;0.80;;;17.30;99.90;;;;;;5074385;28;20428;-87
2020/12/12 10:11:18;;;;;;;6.00;0.95;;;17.30;99.90;;;;;;5074370;28;20037;-86
2020/12/12 10:13:45;;;;;;;5.72;0.70;;;17.40;99.90;;;;;;5073791;28;20041;-87
2020/12/12 10:16:13;;;;;;;4.50;0.40;;;17.50;99.90;;;;;;5073896;28;20073;-86
2020/12/12 10:18:40;;;;;;;4.18;0.73;;;17.40;99.90;;;;;;5055386;28;20060;-86
2020/12/12 10:21:07;;;;;;;3.78;0.50;;;17.30;99.90;;;;;;5073968;28;20021;-86
2020/12/12 10:23:34;;;;;;;3.92;0.40;;;17.30;99.90;;;;;;5073752;28;20356;-86
2020/12/12 10:26:02;;;;;;;2.03;0.60;;;17.30;99.90;;;;;;5073798;28;20029;-86
2020/12/12 10:28:29;;;;;;;5.50;0.77;;;17.30;99.90;;;;;;5073843;28;20150;-87
2020/12/12 10:30:57;;;;;;;2.28;0.50;;;17.30;99.90;;;;;;5074034;28;20034;-86
2020/12/12 10:33:24;;;;;;;2.75;0.50;;;17.30;99.90;;;;;;5056154;28;20060;-86
2020/12/12 10:35:51;;;;;;;2.63;0.88;;;17.30;99.90;;;;;;5074105;28;20025;-86
2020/12/12 10:38:20;;;;;;;3.30;0.60;;;17.30;99.90;;;;;;5079974;22;20052;-86
2020/12/12 10:41:11;;;;;;;7.60;0.90;;;17.30;99.90;;;;;;5079547;23;20405;-85
2020/12/12 10:43:36;;;;;;;3.13;0.50;;;17.30;99.90;;;;;;5087512;22;20045;-85
2020/12/12 10:46:03;;;;;;;9.23;1.40;;;17.30;99.90;;;;;;5089769;22;20705;-86
2020/12/12 10:48:31;;;;;;;6.90;1.02;;;17.20;99.90;;;;;;5073556;28;20052;-86
2020/12/12 10:50:58;;;;;;;7.78;0.93;;;17.30;99.90;;;;;;5073583;28;20048;-85
2020/12/12 10:53:26;;;;;;;7.22;1.15;;;17.30;99.90;;;;;;5046896;28;20532;-86
2020/12/12 10:55:53;;;;;;;6.57;0.90;;;17.20;99.90;;;;;;5072155;22;20040;-86
2020/12/12 10:58:21;;;;;;;5.80;1.20;;;17.20;99.90;;;;;;5073555;28;20063;-86
2020/12/12 11:00:50;;;;;;;4.90;1.23;;;17.20;99.90;;;;;;5055509;28;20025;-86
2020/12/12 11:03:18;;;;;;;6.40;1.15;;;17.20;99.90;;;;;;5073489;28;20028;-86
2020/12/12 11:05:46;;;;;;;4.13;0.70;;;17.20;99.90;;;;;;5055476;28;20100;-86
2020/12/12 11:08:13;;;;;;;6.75;1.42;;;17.20;99.90;;;;;;5072946;28;20021;-86
2020/12/12 11:10:40;;;;;;;4.38;1.48;;;17.20;99.90;;;;;;5073127;28;20024;-86
2020/12/12 11:13:08;;;;;;;5.60;1.50;;;17.10;99.90;;;;;;5080148;22;20060;-86
2020/12/12 11:15:38;;;;;;;5.40;0.95;;;17.20;99.90;;;;;;5073257;28;20013;-86
2020/12/12 11:18:06;;;;;;;5.30;0.93;;;17.20;99.90;;;;;;5073060;28;20031;-86
2020/12/12 11:20:34;;;;;;;6.57;1.40;;;17.20;99.90;;;;;;5073135;28;20021;-86
2020/12/12 11:23:01;;;;;;;4.35;1.00;;;17.10;99.90;;;;;;5054637;28;20032;-86
2020/12/12 11:25:28;;;;;;;5.95;1.80;;;17.10;99.90;;;;;;5072791;28;20017;-86
2020/12/12 11:27:56;;;;;;;5.25;1.38;;;17.10;99.90;;;;;;5055234;28;20025;-86
2020/12/12 11:30:24;;;;;;;6.80;1.27;;;17.00;99.90;;;;;;5073308;28;20020;-85
2020/12/12 11:32:54;;;;;;;7.00;1.60;;;17.10;99.90;;;;;;5072749;28;20412;-86
2020/12/12 11:35:35;;;;;;;5.28;1.20;;;17.10;99.90;;;;;;5070816;28;20039;-86
2020/12/12 11:38:15;;;;;;;4.63;1.23;;;17.00;99.90;;;;;;5052730;28;20031;-86
2020/12/12 11:48:13;;;;;;;4.95;1.15;;;17.10;99.90;;;;;;5075193;28;20119;-86
2020/12/12 11:50:40;;;;;;;6.03;1.48;;;17.00;99.90;;;;;;5071392;28;20028;-85
2020/12/12 11:53:08;;;;;;;10.02;0.95;;;17.10;99.90;;;;;;5072180;28;20201;-85
2020/12/12 11:55:35;;;;;;;3.97;1.05;;;17.00;99.90;;;;;;5072265;28;20013;-86
2020/12/12 11:58:02;;;;;;;4.47;1.00;;;17.00;99.90;;;;;;5072170;28;20393;-87
2020/12/12 12:00:29;;;;;;;5.15;0.73;;;17.00;99.90;;;;;;5071993;28;20066;-86
2020/12/12 12:02:57;;;;;;;4.65;0.77;;;17.00;99.90;;;;;;5054371;28;20017;-86
2020/12/12 12:05:24;;;;;;;6.13;0.93;;;17.10;99.90;;;;;;5072044;28;20028;-87
2020/12/12 12:07:51;;;;;;;4.88;0.80;;;16.90;99.90;;;;;;5054066;28;20016;-87
2020/12/12 12:12:46;;;;;;;4.53;0.70;;;17.00;99.90;;;;;;5071781;28;20073;-87
2020/12/12 12:15:14;;;;;;;7.88;0.90;;;17.00;99.90;;;;;;5071935;28;20099;-87
2020/12/12 12:17:41;;;;;;;3.72;0.73;;;17.10;99.90;;;;;;5071663;28;20082;-87
2020/12/12 12:20:09;;;;;;;3.33;0.50;;;17.10;99.90;;;;;;5071957;28;20024;-87
2020/12/12 12:22:36;;;;;;;5.18;0.57;;;17.10;99.90;;;;;;5071829;28;20029;-86
2020/12/12 12:25:06;;;;;;;5.53;0.77;;;17.10;99.90;;;;;;5068011;28;20070;-87
2020/12/12 12:27:35;;;;;;;5.00;0.80;;;17.20;99.90;;;;;;5068006;28;20032;-85
2020/12/12 12:30:02;;;;;;;6.47;0.65;;;17.20;99.90;;;;;;5063356;28;20017;-87
2020/12/12 12:32:29;;;;;;;4.57;0.65;;;17.20;99.90;;;;;;5060372;28;20028;-88
2020/12/12 12:34:57;;;;;;;3.67;0.63;;;17.30;99.90;;;;;;5049009;28;20036;-87
2020/12/12 12:37:24;;;;;;;4.50;0.68;;;17.30;99.90;;;;;;5072636;28;20029;-88
2020/12/12 12:39:51;;;;;;;4.70;0.60;;;17.20;99.90;;;;;;5065618;28;20145;-87
2020/12/12 12:42:21;;;;;;;4.00;0.40;;;17.20;99.90;;;;;;5063091;28;20065;-88
2020/12/12 12:44:49;;;;;;;6.70;0.60;;;17.20;99.90;;;;;;5066123;28;20552;-87
2020/12/12 12:47:16;;;;;;;3.50;0.50;;;17.20;99.90;;;;;;5082877;22;20063;-87
2020/12/12 12:49:43;;;;;;;7.47;0.90;;;17.20;99.90;;;;;;5078105;22;20446;-87
2020/12/12 12:52:10;;;;;;;6.32;0.75;;;17.10;99.90;;;;;;5050292;28;20512;-88
2020/12/12 12:54:38;;;;;;;5.50;0.60;;;17.10;99.90;;;;;;5064480;23;20140;-87
2020/12/12 12:57:05;;;;;;;5.95;1.25;;;17.10;99.90;;;;;;5049347;28;20032;-87
2020/12/12 12:59:32;;;;;;;2.55;0.52;;;17.00;99.90;;;;;;5047817;28;20794;-88
2020/12/12 13:01:59;;;;;;;7.85;0.88;;;17.10;99.90;;;;;;5051689;28;20021;-87
2020/12/12 13:04:27;;;;;;;1.80;0.32;;;17.00;99.90;;;;;;5068371;22;20049;-88
2020/12/12 13:06:54;;;;;;;3.78;0.65;;;17.10;99.90;;;;;;5038104;28;20521;-87
2020/12/12 13:09:21;;;;;;;3.72;0.32;;;17.00;99.90;;;;;;5064615;28;20182;-88
2020/12/12 13:11:48;;;;;;;4.68;0.55;;;17.10;99.90;;;;;;5075804;28;20020;-87
2020/12/12 13:14:16;;;;;;;7.47;0.70;;;17.10;99.90;;;;;;5063960;28;20446;-88